Latest Weather Observations for Cape Otway

IDV60801

Issued at 1:35 pm EST Thursday 17 April 2014 (issued every 30 minutes, with the page automatically refreshed every 10 minutes)

About weather observations | Map of weather stations | Latest weather observations for VIC | Other Formats
Station Details ID: 090015 Name: CAPE OTWAY LIGHTHOUSE Lat: -38.86 Lon: 143.51 Height: 82.0 m
Data from the previous 72 hours. | See also: Recent months at Cape Otway
Date/Time
EST
Temp
°C
App
Temp
°C
Dew
Point
Rel
Hum
%
Delta-T
°C
Wind Press
QNH
hPa
Press
MSL
hPa
Rain
since 9 am
mm
Dir
 
Spd
km/h
Gust
km/h
Spd
kts
Gust
kts
17/01:30pm 18.0 16.8 12.8 71 2.9 E 11 15 6 8 1019.0 - 0.0
17/01:00pm 17.7 16.3 13.3 75 2.5 ESE 13 15 7 8 1019.4 - 0.0
17/12:30pm 17.3 16.5 12.8 75 2.5 ESE 9 9 5 5 1019.9 - 0.0
17/12:00pm 17.5 16.6 12.6 73 2.7 ESE 9 13 5 7 1020.0 1019.9 0.0
17/11:30am 17.4 16.3 12.1 71 2.9 ESE 9 11 5 6 1020.2 - 0.0
17/11:00am 17.4 16.9 12.1 71 2.9 ESE 6 9 3 5 1020.5 - 0.0
17/10:30am 17.7 18.4 12.1 69 3.1 CALM 0 6 0 3 1020.5 - 0.0
17/10:00am 17.2 16.9 11.3 68 3.2 ESE 4 7 2 4 1020.6 - 0.0
17/09:30am 16.9 16.8 10.9 67 3.2 ENE 2 7 1 4 1020.7 - 0.0
17/09:00am 17.3 16.2 10.6 64 3.6 NNE 7 9 4 5 1020.7 1020.6 0.0
17/08:30am 15.9 16.3 11.2 73 2.5 CALM 0 0 0 0 1020.5 - 0.0
17/08:00am 13.4 11.5 9.1 75 2.2 NNW 9 11 5 6 1020.3 - 0.0
17/07:30am 11.1 8.7 8.5 84 1.3 NNW 11 13 6 7 1020.1 - 0.0
17/07:00am 10.3 7.8 8.0 86 1.1 NNW 11 13 6 7 1019.8 - 0.0
17/06:30am 11.2 8.3 8.1 81 1.5 NNW 13 15 7 8 1019.7 - 0.0
17/06:00am 11.4 8.5 8.1 80 1.6 NNW 13 15 7 8 1019.7 1019.6 0.0
17/05:30am 11.3 8.4 8.0 80 1.6 NNW 13 15 7 8 1019.6 - 0.0
17/05:00am 11.6 8.3 7.9 78 1.8 NNW 15 17 8 9 1019.6 - 0.0
17/04:30am 11.7 8.4 8.0 78 1.8 NNW 15 17 8 9 1019.5 - 0.0
17/04:00am 11.7 8.1 8.2 79 1.7 NNW 17 17 9 9 1019.4 - 0.0
17/03:30am 12.0 8.5 8.8 81 1.6 NNW 17 19 9 10 1019.3 - 0.0
17/03:00am 12.1 8.6 8.9 81 1.6 NNW 17 19 9 10 1019.3 1019.2 0.0
17/02:30am 11.8 8.2 8.4 80 1.7 NNW 17 19 9 10 1019.4 - 0.0
17/02:00am 11.9 8.8 8.9 82 1.5 NNW 15 17 8 9 1019.7 - 0.0
17/01:30am 11.7 8.5 8.5 81 1.6 NNW 15 17 8 9 1019.8 - 0.0
17/01:00am 11.8 8.6 8.4 80 1.7 NNW 15 17 8 9 1019.6 - 0.0
17/12:30am 11.9 8.6 8.2 78 1.8 NNW 15 17 8 9 1019.5 - 0.0
17/12:00am 12.1 8.4 8.0 76 2.0 N 17 19 9 10 1019.4 1019.3 0.0
 
Date/Time
EST
Temp
°C
App
Temp
°C
Dew
Point
Rel
Hum
%
Delta-T
°C
Wind Press
QNH
hPa
Press
MSL
hPa
Rain
since 9 am
mm
Dir
 
Spd
km/h
Gust
km/h
Spd
kts
Gust
kts
16/11:30pm 11.9 8.4 8.7 81 1.6 N 17 19 9 10 1019.6 - 0.0
16/11:00pm 11.7 8.7 9.3 85 1.2 N 15 17 8 9 1019.8 - 0.0
16/10:30pm 11.7 10.0 9.7 87 1.0 N 9 11 5 6 1019.9 - 0.0
16/10:00pm 12.1 10.0 9.9 86 1.1 N 11 13 6 7 1019.9 - 0.0
16/09:30pm 12.6 11.1 10.5 87 1.1 N 9 11 5 6 1019.8 - 0.0
16/09:00pm 12.8 11.3 10.5 86 1.2 NNE 9 11 5 6 1019.6 1019.5 0.0
16/08:30pm 13.1 10.8 10.6 85 1.3 NNE 13 13 7 7 1019.5 - 0.0
16/08:00pm 12.9 11.4 10.6 86 1.2 NNE 9 11 5 6 1019.3 - 0.0
16/07:30pm 13.1 11.7 11.0 87 1.1 NNE 9 11 5 6 1019.2 - 0.0
16/07:00pm 12.8 11.7 10.5 86 1.2 N 7 11 4 6 1019.4 - 0.0
16/06:30pm 13.0 13.2 10.5 85 1.3 SW 0 0 0 0 1019.3 - 0.0
16/06:00pm 14.6 15.0 11.4 81 1.7 CALM 0 0 0 0 1019.4 1019.3 0.0
16/05:30pm 15.8 15.1 11.3 74 2.4 WNW 6 7 3 4 1019.4 - 0.0
16/05:00pm 15.8 15.2 11.7 76 2.2 W 6 9 3 5 1019.4 - 0.0
16/04:30pm 16.0 15.4 12.2 78 2.1 NW 7 9 4 5 1019.2 - 0.0
16/04:00pm 16.1 15.1 12.3 78 2.1 WNW 9 13 5 7 1019.3 - 0.0
16/03:30pm 16.5 16.1 12.3 76 2.3 NNW 6 9 3 5 1019.3 - 0.0
16/03:00pm 16.6 16.3 12.6 77 2.2 SSE 6 9 3 5 1019.2 1019.1 0.0
16/02:30pm 16.9 16.5 13.0 78 2.2 SE 7 15 4 8 1019.1 - 0.0
16/02:00pm 17.0 15.8 12.7 76 2.4 ESE 11 17 6 9 1018.9 - 0.0
16/01:30pm 17.6 16.8 12.8 73 2.7 ENE 9 20 5 11 1019.0 - 0.0
16/01:00pm 16.7 15.0 12.3 75 2.4 ENE 13 20 7 11 1019.1 - 0.0
16/12:30pm 17.1 17.0 12.2 73 2.7 N 4 7 2 4 1019.6 - 0.0
16/12:00pm 16.9 16.1 11.6 71 2.9 NW 7 15 4 8 1020.2 1020.1 0.0
16/11:30am 17.5 16.0 11.8 69 3.1 NE 11 19 6 10 1020.3 - 0.0
16/11:00am 16.8 14.3 11.2 69 3.0 NE 15 20 8 11 1020.4 - 0.0
16/10:30am 17.1 14.6 11.2 68 3.2 NE 15 24 8 13 1020.5 - 0.0
16/10:00am 17.1 14.9 12.2 73 2.7 NE 15 24 8 13 1020.5 - 0.0
16/09:30am 16.4 14.9 12.0 75 2.4 ENE 11 19 6 10 1020.7 - 0.0
16/09:00am 15.3 13.5 12.0 81 1.8 NE 13 19 7 10 1021.0 1020.9 0.0
16/08:30am 14.5 14.5 12.5 88 1.1 ESE 4 7 2 4 1021.1 - 0.0
16/08:00am 13.7 13.0 12.0 89 0.9 NNE 7 11 4 6 1021.1 - 0.0
16/07:30am 12.5 11.6 11.4 93 0.6 N 7 9 4 5 1021.0 - 0.0
16/07:00am 12.2 10.7 10.7 90 0.8 ENE 9 13 5 7 1020.8 - 0.0
16/06:30am 11.8 10.7 10.6 92 0.6 NE 7 7 4 4 1020.8 - 0.0
16/06:00am 12.1 10.6 10.6 90 0.8 NE 9 11 5 6 1020.8 1020.7 0.0
16/05:30am 12.2 10.7 10.5 89 0.9 NE 9 13 5 7 1020.8 - 0.0
16/05:00am 12.2 11.1 10.5 89 0.9 NE 7 9 4 5 1021.0 - 0.0
16/04:30am 11.5 11.1 9.9 90 0.8 NNE 2 6 1 3 1021.2 - 0.0
16/04:00am 11.6 11.3 10.0 90 0.8 NE 2 6 1 3 1021.4 - 0.0
16/03:30am 12.6 12.8 10.7 88 1.0 CALM 0 0 0 0 1021.5 - 0.0
16/03:00am 13.1 12.6 10.8 86 1.2 NE 4 7 2 4 1021.7 1021.6 0.0
16/02:30am 13.4 12.3 10.7 84 1.4 NE 7 11 4 6 1021.8 - 0.0
16/02:00am 12.8 10.8 10.3 85 1.3 ENE 11 13 6 7 1021.8 - 0.0
16/01:30am 13.0 11.0 10.1 82 1.5 NE 11 13 6 7 1022.1 - 0.0
16/01:00am 12.8 10.7 9.7 81 1.6 ENE 11 13 6 7 1022.3 - 0.0
16/12:30am 12.6 10.5 9.9 83 1.4 NE 11 13 6 7 1022.6 - 0.0
16/12:00am 12.0 9.5 9.6 85 1.2 NE 13 15 7 8 1022.8 1022.7 0.0
 
Date/Time
EST
Temp
°C
App
Temp
°C
Dew
Point
Rel
Hum
%
Delta-T
°C
Wind Press
QNH
hPa
Press
MSL
hPa
Rain
since 9 am
mm
Dir
 
Spd
km/h
Gust
km/h
Spd
kts
Gust
kts
15/11:30pm 11.9 9.7 9.3 84 1.3 NE 11 13 6 7 1023.2 - 0.0
15/11:00pm 12.2 9.6 9.2 82 1.5 NE 13 13 7 7 1023.5 - 0.0
15/10:30pm 11.8 9.8 8.8 82 1.5 NE 9 11 5 6 1023.7 - 0.0
15/10:00pm 12.0 9.9 8.3 78 1.8 NE 9 9 5 5 1023.8 - 0.0
15/09:30pm 11.8 10.1 8.3 79 1.7 NE 7 9 4 5 1023.9 - 0.0
15/09:00pm 11.5 9.8 8.5 82 1.5 NE 7 11 4 6 1023.9 1023.8 0.0
15/08:30pm 12.0 11.7 8.8 81 1.6 CALM 0 6 0 3 1024.0 - 0.0
15/08:00pm 13.0 12.7 8.8 75 2.1 CALM 0 0 0 0 1024.1 - 0.0
15/07:30pm 13.7 12.3 9.4 75 2.2 NE 7 11 4 6 1023.9 - 0.0
15/07:00pm 14.4 12.9 9.3 71 2.6 E 7 15 4 8 1023.9 - 0.0
15/06:30pm 14.6 13.7 9.3 70 2.7 SE 4 9 2 5 1023.7 - 0.0
15/06:00pm 14.7 14.3 9.7 72 2.6 SSW 2 9 1 5 1023.5 1023.4 0.0
15/05:30pm 15.3 14.9 9.9 70 2.8 N 2 7 1 4 1023.3 - 0.0
15/05:00pm 15.7 15.5 10.4 71 2.8 SSW 2 9 1 5 1023.2 - 0.0
15/04:30pm 15.4 14.8 10.5 72 2.6 SSE 4 11 2 6 1023.2 - 0.0
15/04:00pm 15.6 14.5 10.5 71 2.7 SSE 7 11 4 6 1023.2 - 0.0
15/03:30pm 16.3 15.3 10.9 70 2.9 SE 7 13 4 7 1023.3 - 0.0
15/03:00pm 16.8 16.4 11.0 68 3.1 S 4 9 2 5 1023.5 1023.4 0.0
15/02:30pm 16.8 16.0 11.2 69 3.0 S 6 13 3 7 1023.6 - 0.0
15/02:00pm 16.9 16.6 11.6 71 2.9 S 4 13 2 7 1023.7 - 0.0
15/01:30pm 17.6 16.9 11.3 66 3.4 SSW 6 15 3 8 1023.9 - 0.0
15/01:00pm 18.0 17.1 11.4 65 3.6 S 7 13 4 7 1024.1 - 0.0
15/12:30pm 17.4 16.0 10.9 65 3.5 S 9 15 5 8 1024.5 - 0.0
15/12:00pm 16.7 15.0 10.0 64 3.5 SE 9 17 5 9 1024.8 1024.7 0.0
15/11:30am 16.8 14.6 10.8 67 3.2 SE 13 22 7 12 1025.1 - 0.0
15/11:00am 16.7 15.0 11.3 70 2.9 SSE 11 20 6 11 1025.3 - 0.0
15/10:30am 16.3 14.0 10.4 68 3.1 SE 13 24 7 13 1025.1 - 0.0
15/10:00am 15.8 14.0 10.7 71 2.7 ESE 11 19 6 10 1025.2 - 0.0
15/09:30am 15.9 13.7 10.8 71 2.7 S 13 20 7 11 1025.1 - 0.0
15/09:00am 16.0 14.3 11.1 72 2.6 SSE 11 22 6 12 1025.1 1025.0 0.2
15/08:30am 15.3 13.5 11.0 75 2.3 SSE 11 20 6 11 1025.0 - 0.2
15/08:00am 15.2 13.1 11.1 76 2.2 SE 13 20 7 11 1024.7 - 0.2
15/07:30am 14.9 13.9 12.3 84 1.4 N 9 19 5 10 1024.5 - 0.2
15/07:00am 14.7 13.7 12.3 85 1.3 W 9 15 5 8 1024.3 - 0.2
15/06:30am 14.7 12.8 11.7 82 1.6 WSW 13 20 7 11 1024.2 - 0.2
15/06:00am 14.8 13.6 11.6 81 1.7 W 9 17 5 9 1024.1 1024.0 0.2
15/05:30am 14.9 13.7 11.5 80 1.8 W 9 15 5 8 1024.0 - 0.2
15/05:00am 14.4 13.3 12.0 85 1.3 W 9 15 5 8 1023.9 - 0.2
15/04:30am 15.1 13.8 11.2 77 2.1 WNW 9 13 5 7 1023.9 - 0.2
15/04:00am 14.8 13.5 11.2 79 1.9 SE 9 22 5 12 1023.8 - 0.2
15/03:30am 14.8 13.1 11.2 79 1.9 SE 11 19 6 10 1023.9 - 0.2
15/03:00am 14.7 13.0 11.3 80 1.8 SSE 11 17 6 9 1023.9 1023.8 0.2
15/02:30am 14.7 13.4 11.3 80 1.8 SSW 9 22 5 12 1024.1 - 0.2
15/02:00am 14.8 13.7 11.8 82 1.6 S 9 15 5 8 1024.2 - 0.2
15/01:30am 14.9 13.5 12.1 83 1.5 ESE 11 17 6 9 1024.2 - 0.2
15/01:00am 15.1 13.7 12.2 83 1.6 SE 11 22 6 12 1024.2 - 0.2
15/12:30am 15.2 14.1 12.1 82 1.7 SE 9 17 5 9 1024.2 - 0.2
15/12:00am 15.6 14.1 11.9 78 2.0 SSE 11 20 6 11 1024.3 1024.2 0.2
 
Date/Time
EST
Temp
°C
App
Temp
°C
Dew
Point
Rel
Hum
%
Delta-T
°C
Wind Press
QNH
hPa
Press
MSL
hPa
Rain
since 9 am
mm
Dir
 
Spd
km/h
Gust
km/h
Spd
kts
Gust
kts
14/11:30pm 15.1 13.0 11.0 76 2.2 SE 13 24 7 13 1024.4 - 0.2
14/11:00pm 15.1 14.0 12.0 82 1.7 SSE 9 17 5 9 1024.6 - 0.2
14/10:30pm 14.5 13.6 11.5 82 1.6 ENE 7 9 4 5 1024.8 - 0.2
14/10:00pm 15.2 13.3 11.7 79 1.9 ESE 13 17 7 9 1024.8 - 0.2
14/09:30pm 15.1 12.9 12.2 83 1.6 ESE 15 19 8 10 1024.9 - 0.2
14/09:00pm 15.1 14.5 12.3 83 1.5 SE 7 17 4 9 1024.8 1024.7 0.2
14/08:30pm 15.1 14.8 12.7 85 1.3 SSE 6 11 3 6 1024.8 - 0.2
14/08:00pm 14.8 14.5 12.8 88 1.1 SSE 6 11 3 6 1024.7 - 0.2
14/07:30pm 15.1 14.2 12.7 85 1.3 SE 9 15 5 8 1024.7 - 0.0
14/07:00pm 15.9 15.7 11.8 76 2.2 WSW 4 11 2 6 1024.5 - 0.0
14/06:30pm 15.8 15.6 11.7 76 2.2 W 4 9 2 5 1024.3 - 0.0
14/06:00pm 15.9 15.4 12.0 77 2.1 WSW 6 13 3 7 1024.0 1023.9 0.0
14/05:30pm 16.1 15.9 11.9 76 2.3 SW 4 9 2 5 1023.9 - 0.0
14/05:00pm 16.7 17.0 12.1 74 2.5 WSW 2 9 1 5 1023.8 - 0.0
14/04:30pm 16.9 16.8 12.0 73 2.7 S 4 11 2 6 1023.7 - 0.0
14/04:00pm 17.1 16.6 12.0 72 2.8 SW 6 11 3 6 1023.7 - 0.0
14/03:30pm 17.5 17.1 12.4 72 2.8 SSW 6 15 3 8 1023.7 - 0.0
14/03:00pm 17.7 17.3 12.5 71 2.9 S 6 13 3 7 1023.7 1023.6 0.0
14/02:30pm 18.1 17.1 12.3 69 3.2 SSE 9 15 5 8 1023.7 - 0.0
14/02:00pm 18.7 17.8 12.6 67 3.4 SSE 9 17 5 9 1023.7 - 0.0

Other Formats:

Comma delimited format used in spreadsheet applications
http://www.bom.gov.au/fwo/IDV60801/IDV60801.94842.axf

JavaScript Object Notation format (JSON) in row-major order
http://www.bom.gov.au/fwo/IDV60801/IDV60801.94842.json